Time;durP1;ratioP1;P1;durP2;ratioP2;P2;SDS_P1;SDS_P2;PMS_P1;PMS_P2;Temp;Humidity;BMP_temperature;BMP_pressure;BME280_temperature;BME280_humidity;BME280_pressure;Samples;Min_cycle;Max_cycle;Signal;HPM_P1;HPM_P2
2022/10/12 00:02:07;;;;;;;3.35;2.17;;;10.30;55.20;;;;;;4995789;28;20461;-73
2022/10/12 00:04:33;;;;;;;5.85;2.05;;;10.40;55.40;;;;;;4976755;28;20105;-73
2022/10/12 00:06:59;;;;;;;3.75;2.53;;;10.40;55.50;;;;;;4982957;28;20046;-75
2022/10/12 00:09:25;;;;;;;3.28;1.55;;;10.40;55.50;;;;;;4990392;28;20040;-73
2022/10/12 00:11:53;;;;;;;5.15;2.15;;;10.40;55.60;;;;;;4995865;28;20050;-72
2022/10/12 00:14:19;;;;;;;5.15;1.98;;;10.40;55.60;;;;;;4987699;28;20474;-73
2022/10/12 00:16:46;;;;;;;6.43;2.38;;;10.40;55.60;;;;;;4978327;28;20046;-74
2022/10/12 00:19:14;;;;;;;5.70;2.38;;;10.40;55.60;;;;;;4989342;28;20040;-73
2022/10/12 00:21:41;;;;;;;5.75;2.25;;;10.40;55.70;;;;;;4981366;28;20043;-74
2022/10/12 00:24:08;;;;;;;4.68;2.30;;;10.40;55.70;;;;;;4988128;28;20038;-73
2022/10/12 00:26:34;;;;;;;5.10;2.22;;;10.50;55.90;;;;;;4987457;28;20067;-73
2022/10/12 00:29:01;;;;;;;4.38;2.03;;;10.50;55.90;;;;;;4990284;28;20528;-73
2022/10/12 00:31:30;;;;;;;5.25;2.20;;;10.50;56.00;;;;;;4989344;28;20048;-73
2022/10/12 00:34:00;;;;;;;5.30;2.60;;;10.50;56.00;;;;;;4971577;28;20084;-73
2022/10/12 00:36:32;;;;;;;6.07;2.35;;;10.50;56.00;;;;;;4983704;28;20038;-73
2022/10/12 00:38:59;;;;;;;5.77;2.17;;;10.50;56.10;;;;;;4992486;28;20085;-73
2022/10/12 00:41:28;;;;;;;4.95;1.92;;;10.50;56.10;;;;;;4993367;28;20289;-73
2022/10/12 00:43:54;;;;;;;7.45;2.67;;;10.50;56.20;;;;;;4980126;28;20030;-73
2022/10/12 00:46:23;;;;;;;5.65;2.70;;;10.50;56.20;;;;;;4983159;28;20035;-73
2022/10/12 00:49:21;;;;;;;5.35;2.33;;;10.50;56.30;;;;;;4979946;28;20042;-73
2022/10/12 00:51:52;;;;;;;5.47;2.90;;;10.50;56.40;;;;;;4979225;28;20123;-74
2022/10/12 00:54:27;;;;;;;7.83;2.90;;;10.50;56.30;;;;;;4987183;28;20033;-74
2022/10/12 00:56:54;;;;;;;6.40;2.78;;;10.50;56.40;;;;;;4988385;28;20256;-73
2022/10/12 00:59:35;;;;;;;4.03;2.80;;;10.50;56.40;;;;;;4982318;28;20162;-72
2022/10/12 01:02:01;;;;;;;7.70;3.47;;;10.60;56.70;;;;;;4981898;28;20030;-73
2022/10/12 01:04:30;;;;;;;7.20;2.55;;;10.50;56.50;;;;;;4988821;28;20022;-73
2022/10/12 01:06:56;;;;;;;7.45;2.65;;;10.60;56.80;;;;;;4978051;28;20098;-74
2022/10/12 01:09:22;;;;;;;5.68;2.90;;;10.60;56.80;;;;;;4986985;28;20041;-74
2022/10/12 01:11:48;;;;;;;6.50;2.65;;;10.60;56.90;;;;;;4993327;28;20065;-73
2022/10/12 01:14:18;;;;;;;7.97;2.78;;;10.60;56.90;;;;;;4988153;28;20043;-72
2022/10/12 01:17:03;;;;;;;5.43;2.70;;;10.60;56.90;;;;;;4986711;28;20034;-73
2022/10/12 01:19:41;;;;;;;10.23;3.40;;;10.60;57.10;;;;;;4985606;28;20018;-73
2022/10/12 01:22:10;;;;;;;4.85;2.53;;;10.60;57.10;;;;;;4986264;28;20174;-73
2022/10/12 01:24:48;;;;;;;7.50;3.95;;;10.60;57.10;;;;;;4995134;28;20042;-72
2022/10/12 01:27:35;;;;;;;6.47;2.90;;;10.70;57.30;;;;;;4975313;28;20042;-73
2022/10/12 01:30:17;;;;;;;10.50;3.80;;;10.60;57.20;;;;;;4988584;28;20038;-73
2022/10/12 01:33:06;;;;;;;4.03;2.42;;;10.70;57.50;;;;;;4988540;28;20026;-74
2022/10/12 01:35:48;;;;;;;6.60;2.90;;;10.70;57.50;;;;;;4961660;28;20100;-74
2022/10/12 01:38:27;;;;;;;8.55;3.70;;;10.70;57.60;;;;;;4988275;28;20421;-72
2022/10/12 01:41:11;;;;;;;7.30;3.10;;;10.60;57.40;;;;;;4987336;28;20034;-73
2022/10/12 01:43:43;;;;;;;4.50;2.05;;;10.60;57.50;;;;;;4977723;28;20074;-73
2022/10/12 01:46:18;;;;;;;8.00;3.35;;;10.60;57.60;;;;;;4989403;28;20038;-73
2022/10/12 01:48:47;;;;;;;5.72;3.30;;;10.60;57.60;;;;;;5001724;28;20078;-72
2022/10/12 01:51:28;;;;;;;4.75;2.42;;;10.50;57.60;;;;;;4987552;28;20030;-73
2022/10/12 01:54:06;;;;;;;6.55;2.88;;;10.50;57.70;;;;;;4989541;28;20053;-73
2022/10/12 01:56:42;;;;;;;5.18;2.85;;;10.40;57.60;;;;;;5001425;28;20030;-73
2022/10/12 01:59:29;;;;;;;6.50;2.75;;;10.40;57.70;;;;;;4988495;28;20517;-73
2022/10/12 02:02:18;;;;;;;4.45;2.17;;;10.40;57.80;;;;;;4973393;28;20524;-73
2022/10/12 02:04:50;;;;;;;5.85;2.80;;;10.40;57.90;;;;;;4985538;28;20524;-73
2022/10/12 02:07:38;;;;;;;6.47;2.53;;;10.40;57.90;;;;;;4991491;28;20037;-74
2022/10/12 02:10:13;;;;;;;5.32;2.47;;;10.30;57.80;;;;;;4989718;28;20041;-73
2022/10/12 02:12:42;;;;;;;6.60;2.60;;;10.30;57.80;;;;;;4988741;28;20033;-73
2022/10/12 02:15:10;;;;;;;5.40;2.63;;;10.30;57.90;;;;;;4990212;28;20022;-74
2022/10/12 02:17:38;;;;;;;7.78;2.53;;;10.30;58.00;;;;;;4989465;28;20037;-73
2022/10/12 02:20:10;;;;;;;4.32;2.60;;;10.30;58.00;;;;;;4989407;28;20049;-74
2022/10/12 02:22:37;;;;;;;8.57;2.75;;;10.20;57.90;;;;;;4989819;28;20046;-73
2022/10/12 02:25:07;;;;;;;6.10;2.83;;;10.20;57.90;;;;;;4987258;28;20078;-73
2022/10/12 02:27:42;;;;;;;7.53;2.70;;;10.20;58.00;;;;;;4989122;28;20181;-72
2022/10/12 02:30:10;;;;;;;4.85;2.30;;;10.20;58.00;;;;;;4973790;28;20041;-73
2022/10/12 02:33:03;;;;;;;6.43;2.65;;;10.10;57.90;;;;;;4994026;28;20040;-73
2022/10/12 02:35:51;;;;;;;;;;;10.20;58.20;;;;;;5001802;28;20037;-73
2022/10/12 02:38:38;;;;;;;6.05;2.45;;;10.20;58.00;;;;;;4989228;28;19914;-73
2022/10/12 02:41:11;;;;;;;7.80;3.20;;;10.20;57.90;;;;;;4990561;28;20034;-73
2022/10/12 02:43:45;;;;;;;8.95;4.10;;;10.20;57.90;;;;;;4989267;28;20038;-73
2022/10/12 02:46:13;;;;;;;4.15;2.75;;;10.20;58.00;;;;;;4988403;28;20034;-72
2022/10/12 02:48:45;;;;;;;5.90;2.47;;;10.20;58.00;;;;;;4989710;28;20060;-72
2022/10/12 02:51:12;;;;;;;5.75;3.22;;;10.20;58.10;;;;;;4989289;28;20394;-74
2022/10/12 02:53:39;;;;;;;6.05;2.70;;;10.20;58.10;;;;;;4989214;28;20026;-74
2022/10/12 02:56:11;;;;;;;8.20;2.40;;;10.20;58.20;;;;;;5005837;28;20030;-72
2022/10/12 02:58:42;;;;;;;5.65;2.30;;;10.30;58.50;;;;;;4996332;28;20045;-73
2022/10/12 03:01:08;;;;;;;7.05;2.67;;;10.30;58.50;;;;;;4989519;28;20054;-72
2022/10/12 03:03:34;;;;;;;5.57;2.63;;;10.30;58.50;;;;;;4988136;28;20150;-74
2022/10/12 03:06:00;;;;;;;9.15;2.92;;;10.30;58.50;;;;;;4990915;28;20034;-72
2022/10/12 03:08:26;;;;;;;6.97;2.17;;;10.40;58.70;;;;;;4985821;28;20442;-73
2022/10/12 03:10:52;;;;;;;6.00;2.72;;;10.30;58.60;;;;;;4992394;28;20035;-72
2022/10/12 03:13:18;;;;;;;6.32;2.10;;;10.30;58.60;;;;;;4993643;28;20545;-73
2022/10/12 03:15:44;;;;;;;7.97;2.75;;;10.40;58.80;;;;;;4993405;28;20022;-74
2022/10/12 03:18:10;;;;;;;3.80;2.45;;;10.40;58.80;;;;;;4993360;28;20048;-74
2022/10/12 03:20:37;;;;;;;7.97;2.50;;;10.40;58.90;;;;;;4989561;28;20023;-73
2022/10/12 03:23:03;;;;;;;8.65;3.15;;;10.40;58.90;;;;;;4981516;28;20596;-75
2022/10/12 03:25:29;;;;;;;5.18;2.63;;;10.40;58.90;;;;;;4989515;28;20031;-73
2022/10/12 03:27:55;;;;;;;5.40;2.95;;;10.40;59.20;;;;;;4992663;28;20054;-75
2022/10/12 03:30:21;;;;;;;6.63;2.47;;;10.40;59.00;;;;;;5004304;28;20049;-74
2022/10/12 03:32:47;;;;;;;5.82;2.05;;;10.50;59.20;;;;;;4994073;28;20082;-73
2022/10/12 03:35:15;;;;;;;6.75;3.00;;;10.50;59.20;;;;;;4992363;28;20039;-73
2022/10/12 03:37:41;;;;;;;4.25;2.15;;;10.50;59.20;;;;;;4994826;28;20220;-74
2022/10/12 03:40:07;;;;;;;5.03;2.20;;;10.50;59.30;;;;;;4993796;28;20041;-75
2022/10/12 03:42:34;;;;;;;8.68;3.47;;;10.50;59.30;;;;;;4990909;28;20046;-72
2022/10/12 03:45:00;;;;;;;5.20;1.90;;;10.50;59.30;;;;;;4993725;28;20042;-74
2022/10/12 03:47:26;;;;;;;6.82;2.30;;;10.60;59.50;;;;;;4987944;28;20387;-72
2022/10/12 03:49:56;;;;;;;4.22;2.00;;;10.60;59.60;;;;;;4976309;28;20688;-72
2022/10/12 03:52:23;;;;;;;4.60;2.35;;;10.60;59.60;;;;;;5003289;28;20040;-72
2022/10/12 03:54:49;;;;;;;4.65;2.85;;;10.60;59.60;;;;;;4996191;28;20045;-72
2022/10/12 03:57:15;;;;;;;6.32;2.20;;;10.60;59.70;;;;;;4994375;28;20030;-73
2022/10/12 03:59:44;;;;;;;3.75;1.98;;;10.60;59.70;;;;;;5000865;28;20033;-73
2022/10/12 04:02:10;;;;;;;7.45;2.65;;;10.70;60.00;;;;;;4992604;28;20034;-74
2022/10/12 04:04:38;;;;;;;6.18;2.40;;;10.70;60.00;;;;;;4976759;28;20030;-73
2022/10/12 04:07:04;;;;;;;5.07;2.10;;;10.70;60.00;;;;;;4977249;28;20557;-73
2022/10/12 04:09:29;;;;;;;3.67;1.92;;;10.70;60.10;;;;;;4992949;28;20029;-74
2022/10/12 04:11:55;;;;;;;4.47;2.30;;;10.70;60.10;;;;;;4993178;28;20069;-73
2022/10/12 04:14:22;;;;;;;8.63;2.83;;;10.70;60.10;;;;;;4994406;28;20068;-71
2022/10/12 04:16:47;;;;;;;4.35;1.80;;;10.70;60.10;;;;;;4990498;28;20034;-72
2022/10/12 04:19:14;;;;;;;6.20;2.15;;;10.70;60.20;;;;;;4992911;28;20029;-75
2022/10/12 04:21:40;;;;;;;6.13;2.20;;;10.70;60.20;;;;;;4980630;28;20054;-73
2022/10/12 04:24:06;;;;;;;5.93;2.13;;;10.70;60.20;;;;;;4989882;28;20049;-74
2022/10/12 04:26:33;;;;;;;7.80;2.50;;;10.80;60.50;;;;;;4987045;28;20042;-74
2022/10/12 04:28:59;;;;;;;7.07;3.00;;;10.80;60.50;;;;;;4975843;28;20034;-73
2022/10/12 04:31:25;;;;;;;6.55;2.88;;;10.80;60.50;;;;;;4993279;28;20092;-73
2022/10/12 04:33:55;;;;;;;4.47;2.22;;;10.80;60.60;;;;;;4992688;28;20069;-73
2022/10/12 04:36:26;;;;;;;5.32;2.20;;;10.80;60.60;;;;;;4989430;28;20044;-72
2022/10/12 04:38:52;;;;;;;5.88;2.50;;;10.80;60.70;;;;;;4973616;28;20045;-73
2022/10/12 04:41:20;;;;;;;5.13;2.28;;;10.80;60.70;;;;;;4991985;28;20038;-73
2022/10/12 04:43:46;;;;;;;5.18;2.10;;;10.80;60.70;;;;;;4995444;28;20040;-72
2022/10/12 04:46:12;;;;;;;6.18;2.00;;;10.90;60.90;;;;;;4992891;28;20050;-73
2022/10/12 04:48:39;;;;;;;5.95;2.60;;;10.90;60.90;;;;;;4995207;28;20618;-73
2022/10/12 04:51:06;;;;;;;6.00;2.35;;;10.90;61.00;;;;;;4987417;28;20030;-74
2022/10/12 04:53:31;;;;;;;4.90;1.90;;;10.90;61.00;;;;;;4982674;28;20638;-72
2022/10/12 04:56:02;;;;;;;4.85;2.10;;;11.00;61.20;;;;;;4995814;28;20391;-73
2022/10/12 04:58:28;;;;;;;4.65;1.88;;;10.90;61.10;;;;;;5003054;28;20053;-72
2022/10/12 05:00:56;;;;;;;6.97;1.92;;;11.00;61.30;;;;;;4996103;28;20049;-73
2022/10/12 05:03:22;;;;;;;4.22;1.90;;;11.00;61.30;;;;;;4991950;28;20038;-72
2022/10/12 05:05:48;;;;;;;6.03;1.95;;;11.00;61.30;;;;;;4994747;28;20041;-73
2022/10/12 05:08:14;;;;;;;3.47;1.75;;;11.00;61.30;;;;;;4999831;28;20042;-72
2022/10/12 05:10:41;;;;;;;4.95;1.98;;;11.00;61.40;;;;;;4996699;28;20027;-73
2022/10/12 05:13:11;;;;;;;5.40;2.30;;;11.00;61.40;;;;;;4984215;28;20041;-72
2022/10/12 05:15:37;;;;;;;3.20;1.60;;;11.10;61.60;;;;;;4997422;28;20030;-73
2022/10/12 05:18:05;;;;;;;4.75;2.30;;;11.10;61.60;;;;;;4993754;28;20129;-75
2022/10/12 05:20:31;;;;;;;5.10;1.63;;;11.10;61.70;;;;;;4982729;28;20034;-73
2022/10/12 05:22:57;;;;;;;6.53;2.60;;;11.10;61.70;;;;;;4961402;28;20194;-73
2022/10/12 05:25:23;;;;;;;4.55;2.00;;;11.10;61.70;;;;;;4995651;28;20026;-74
2022/10/12 05:27:49;;;;;;;4.85;2.10;;;11.10;61.80;;;;;;4967704;28;20040;-74
2022/10/12 05:30:17;;;;;;;6.85;2.00;;;11.10;61.80;;;;;;4996789;28;20211;-76
2022/10/12 05:32:43;;;;;;;4.32;2.22;;;11.10;61.80;;;;;;5004934;28;20096;-74
2022/10/12 05:35:10;;;;;;;4.70;2.20;;;11.10;61.90;;;;;;4995597;28;20061;-74
2022/10/12 05:37:36;;;;;;;7.05;2.53;;;11.10;62.50;;;;;;4992208;28;20034;-75
2022/10/12 05:40:02;;;;;;;4.65;1.70;;;11.10;62.00;;;;;;4995629;28;20030;-77
2022/10/12 05:42:28;;;;;;;7.22;2.33;;;11.10;62.10;;;;;;4962643;28;20049;-74
2022/10/12 05:44:54;;;;;;;4.28;2.20;;;11.10;62.20;;;;;;4985220;28;20393;-74
2022/10/12 05:47:20;;;;;;;8.10;3.95;;;11.10;62.30;;;;;;4985129;28;20125;-74
2022/10/12 05:49:46;;;;;;;6.10;2.10;;;11.10;62.40;;;;;;4975197;28;20042;-73
2022/10/12 05:52:12;;;;;;;8.07;2.58;;;11.10;63.00;;;;;;4985697;28;20429;-74
2022/10/12 05:54:38;;;;;;;5.65;2.20;;;11.10;62.50;;;;;;4993569;28;20046;-73
2022/10/12 05:57:05;;;;;;;5.53;2.33;;;11.10;62.60;;;;;;4986607;28;20327;-74
2022/10/12 05:59:31;;;;;;;5.82;2.55;;;11.10;62.70;;;;;;4986954;28;20097;-73
2022/10/12 06:02:02;;;;;;;6.43;2.50;;;11.10;62.80;;;;;;4988235;28;20050;-74
2022/10/12 06:04:28;;;;;;;8.85;3.00;;;11.20;63.40;;;;;;4988065;28;20075;-75
2022/10/12 06:06:54;;;;;;;9.23;3.03;;;11.20;63.70;;;;;;4983550;28;20031;-75
2022/10/12 06:09:20;;;;;;;7.70;2.90;;;11.30;64.10;;;;;;4992222;28;20030;-75
2022/10/12 06:11:46;;;;;;;13.48;3.83;;;11.30;64.30;;;;;;4982162;28;20097;-76
2022/10/12 06:14:12;;;;;;;8.52;3.67;;;11.40;64.90;;;;;;4981653;28;20070;-73
2022/10/12 06:16:38;;;;;;;9.00;3.08;;;11.60;65.50;;;;;;4982887;28;20145;-72
2022/10/12 06:19:05;;;;;;;6.07;2.78;;;11.60;65.50;;;;;;4993688;28;20046;-72
2022/10/12 06:21:31;;;;;;;4.60;2.63;;;11.80;65.80;;;;;;4973818;28;20035;-73
2022/10/12 06:23:57;;;;;;;8.65;3.05;;;11.80;65.90;;;;;;4994149;28;20137;-75
2022/10/12 06:26:30;;;;;;;8.77;3.10;;;11.80;65.90;;;;;;4978793;28;20027;-73
2022/10/12 06:28:56;;;;;;;7.28;2.70;;;11.80;65.90;;;;;;4976883;28;20022;-75
2022/10/12 06:31:25;;;;;;;8.20;2.67;;;11.80;65.80;;;;;;4994606;28;20026;-75
2022/10/12 06:33:52;;;;;;;6.07;1.95;;;11.80;65.80;;;;;;4987735;28;20037;-74
2022/10/12 06:36:18;;;;;;;10.10;4.22;;;11.80;65.80;;;;;;4969221;28;20022;-74
2022/10/12 06:38:45;;;;;;;6.40;3.55;;;11.70;65.70;;;;;;4987616;28;20058;-75
2022/10/12 06:41:11;;;;;;;5.85;2.92;;;11.70;65.80;;;;;;4990140;28;20575;-76
2022/10/12 06:43:37;;;;;;;4.32;2.78;;;11.60;65.60;;;;;;4981490;28;20034;-74
2022/10/12 06:46:03;;;;;;;7.90;3.13;;;11.60;65.70;;;;;;4990421;28;20033;-75
2022/10/12 06:48:29;;;;;;;8.75;3.05;;;11.60;65.70;;;;;;4986869;28;20578;-75
2022/10/12 06:50:55;;;;;;;11.25;3.00;;;11.60;66.30;;;;;;4984955;28;20126;-76
2022/10/12 06:53:22;;;;;;;7.13;3.38;;;11.50;65.60;;;;;;4990372;28;20482;-75
2022/10/12 06:55:48;;;;;;;3.58;2.50;;;11.50;65.60;;;;;;4994721;28;20057;-75
2022/10/12 06:58:14;;;;;;;9.43;2.92;;;11.50;65.60;;;;;;4992591;28;20311;-75
2022/10/12 07:00:41;;;;;;;9.13;3.58;;;11.50;65.60;;;;;;4984521;28;20034;-76
2022/10/12 07:03:11;;;;;;;6.78;2.55;;;11.50;65.60;;;;;;4990125;28;20042;-73
2022/10/12 07:05:37;;;;;;;9.05;2.97;;;11.40;65.40;;;;;;4984520;28;20490;-74
2022/10/12 07:08:03;;;;;;;8.43;2.97;;;11.50;65.60;;;;;;4982783;28;20041;-75
2022/10/12 07:10:29;;;;;;;7.15;2.58;;;11.50;65.60;;;;;;4991445;28;20057;-76
2022/10/12 07:12:55;;;;;;;5.75;2.88;;;11.50;65.50;;;;;;4959013;28;20026;-75
2022/10/12 07:15:22;;;;;;;5.00;2.40;;;11.50;65.50;;;;;;4991844;28;20038;-76
2022/10/12 07:17:50;;;;;;;6.43;2.83;;;11.60;65.70;;;;;;4990078;28;20027;-76
2022/10/12 07:20:16;;;;;;;6.20;3.25;;;11.60;65.60;;;;;;4985646;28;20047;-76
2022/10/12 07:22:43;;;;;;;7.10;3.00;;;11.60;65.50;;;;;;5004448;28;20046;-75
2022/10/12 07:25:09;;;;;;;6.80;2.63;;;11.60;65.50;;;;;;4990716;28;20505;-76
2022/10/12 07:27:35;;;;;;;3.88;2.90;;;11.70;65.60;;;;;;4984513;28;20124;-76
2022/10/12 07:30:02;;;;;;;5.65;2.63;;;11.70;65.50;;;;;;4990797;28;20053;-74
2022/10/12 07:32:28;;;;;;;7.18;2.80;;;11.80;65.60;;;;;;4990614;28;20034;-75
2022/10/12 07:34:54;;;;;;;6.20;2.90;;;11.90;65.70;;;;;;4991480;28;20042;-75
2022/10/12 07:37:20;;;;;;;8.40;3.38;;;11.90;65.60;;;;;;4989941;28;20028;-73
2022/10/12 07:39:46;;;;;;;10.00;3.28;;;12.00;65.70;;;;;;4992061;28;20045;-73
2022/10/12 07:42:15;;;;;;;9.40;3.17;;;12.00;65.60;;;;;;4992653;28;20041;-73
2022/10/12 07:44:40;;;;;;;8.02;3.20;;;12.10;65.70;;;;;;4989561;28;20018;-75
2022/10/12 07:47:07;;;;;;;6.10;3.30;;;12.10;65.60;;;;;;4990570;28;20052;-72
2022/10/12 07:49:33;;;;;;;5.75;2.85;;;12.10;65.60;;;;;;4993624;28;20061;-75
2022/10/12 07:52:02;;;;;;;5.70;3.22;;;12.20;65.80;;;;;;4988310;28;20393;-73
2022/10/12 07:54:29;;;;;;;6.72;2.42;;;12.20;65.70;;;;;;4989246;28;20383;-73
2022/10/12 07:56:55;;;;;;;7.03;4.20;;;12.30;65.80;;;;;;4990802;28;20030;-74
2022/10/12 07:59:21;;;;;;;7.75;2.75;;;12.30;65.70;;;;;;4972057;28;20056;-73
2022/10/12 08:01:47;;;;;;;9.05;3.38;;;12.40;65.80;;;;;;4982888;28;20055;-72
2022/10/12 08:04:13;;;;;;;6.78;3.08;;;12.50;65.90;;;;;;4982333;28;20241;-74
2022/10/12 08:06:42;;;;;;;8.88;2.97;;;12.50;65.80;;;;;;4969751;28;20427;-75
2022/10/12 08:09:08;;;;;;;9.23;3.63;;;12.60;65.90;;;;;;4986827;28;20453;-74
2022/10/12 08:11:38;;;;;;;7.60;3.15;;;12.70;66.40;;;;;;4990771;28;20515;-75
2022/10/12 08:14:04;;;;;;;6.82;2.53;;;12.80;66.00;;;;;;4990230;28;20034;-75
2022/10/12 08:16:31;;;;;;;10.48;2.40;;;12.80;65.80;;;;;;4990255;28;20030;-74
2022/10/12 08:18:59;;;;;;;6.75;2.33;;;12.90;65.90;;;;;;4989615;28;20053;-75
2022/10/12 08:21:25;;;;;;;11.50;2.80;;;13.00;66.00;;;;;;4983943;28;20150;-73
2022/10/12 08:23:51;;;;;;;5.78;2.80;;;13.10;66.00;;;;;;4994845;28;20038;-74
2022/10/12 08:26:17;;;;;;;7.80;2.75;;;13.10;65.90;;;;;;4988324;28;20032;-77
2022/10/12 08:28:43;;;;;;;7.32;2.60;;;13.20;65.90;;;;;;4972856;28;20030;-74
2022/10/12 08:31:12;;;;;;;9.48;3.20;;;13.30;66.00;;;;;;4985447;28;20066;-73
2022/10/12 08:33:39;;;;;;;10.30;2.88;;;13.40;66.00;;;;;;4983051;28;20029;-72
2022/10/12 08:36:06;;;;;;;9.05;3.05;;;13.50;66.10;;;;;;4982821;28;20038;-74
2022/10/12 08:38:35;;;;;;;8.38;2.72;;;13.60;66.00;;;;;;4994289;28;20029;-76
2022/10/12 08:41:10;;;;;;;10.70;3.30;;;13.70;66.00;;;;;;4983713;28;20478;-77
2022/10/12 08:44:02;;;;;;;5.85;3.45;;;13.90;66.10;;;;;;4990340;28;20052;-75
2022/10/12 08:46:30;;;;;;;6.43;2.65;;;14.00;66.10;;;;;;4986163;28;20098;-75
2022/10/12 08:49:16;;;;;;;8.95;3.03;;;14.00;65.80;;;;;;4991428;28;20128;-74
2022/10/12 08:51:51;;;;;;;9.55;2.95;;;14.10;65.90;;;;;;4978736;28;20022;-75
2022/10/12 08:54:39;;;;;;;7.38;2.47;;;14.20;65.90;;;;;;5009937;28;20495;-75
2022/10/12 08:57:17;;;;;;;7.25;2.40;;;14.30;65.90;;;;;;4989500;28;20049;-75
2022/10/12 08:59:44;;;;;;;4.88;2.17;;;14.40;65.90;;;;;;4994230;28;20532;-75
2022/10/12 09:02:44;;;;;;;6.88;2.75;;;14.50;65.80;;;;;;4988181;28;20041;-76
2022/10/12 09:05:17;;;;;;;5.88;1.98;;;14.60;65.70;;;;;;4990166;28;20049;-75
2022/10/12 09:07:56;;;;;;;7.35;2.45;;;14.80;65.70;;;;;;4988679;28;20031;-76
2022/10/12 09:10:44;;;;;;;7.25;2.70;;;14.90;65.60;;;;;;4995665;28;20030;-75
2022/10/12 09:13:38;;;;;;;7.68;2.30;;;15.00;65.60;;;;;;4986984;28;20030;-75
2022/10/12 09:16:29;;;;;;;5.88;2.95;;;15.10;65.40;;;;;;4997884;28;20092;-74
2022/10/12 09:18:59;;;;;;;6.93;2.40;;;15.30;65.40;;;;;;4988676;28;20219;-75
2022/10/12 09:21:29;;;;;;;8.52;2.83;;;15.40;65.30;;;;;;4989067;28;20042;-74
2022/10/12 09:23:56;;;;;;;9.15;2.45;;;15.40;65.10;;;;;;4986062;28;20041;-75
2022/10/12 09:26:38;;;;;;;7.85;2.40;;;15.50;65.10;;;;;;4985016;28;20549;-75
2022/10/12 09:29:28;;;;;;;5.07;2.13;;;15.50;65.00;;;;;;4984612;28;20053;-73
2022/10/12 09:32:32;;;;;;;10.98;3.53;;;15.60;65.00;;;;;;4985538;28;20441;-73
2022/10/12 09:34:59;;;;;;;7.10;2.28;;;15.50;64.80;;;;;;4984935;28;20031;-74
2022/10/12 09:37:29;;;;;;;5.97;2.30;;;15.50;64.80;;;;;;4987679;28;20525;-74
2022/10/12 09:39:55;;;;;;;7.88;2.80;;;15.60;65.10;;;;;;4986048;28;20026;-73
2022/10/12 09:42:21;;;;;;;4.97;2.15;;;15.50;64.90;;;;;;4987101;28;20042;-75
2022/10/12 09:44:56;;;;;;;4.22;2.40;;;15.60;65.10;;;;;;4971435;28;20038;-73
2022/10/12 09:47:32;;;;;;;7.22;2.67;;;15.50;64.80;;;;;;4978901;28;20038;-74
2022/10/12 09:50:04;;;;;;;10.15;2.95;;;15.60;64.90;;;;;;4990866;28;20445;-75
2022/10/12 09:52:43;;;;;;;8.77;3.70;;;15.60;64.80;;;;;;4977414;28;20181;-75
2022/10/12 09:55:23;;;;;;;4.75;2.10;;;15.70;64.90;;;;;;4988839;28;20085;-74
2022/10/12 09:57:58;;;;;;;7.10;2.67;;;15.70;64.80;;;;;;5005069;28;20053;-75
2022/10/12 10:00:24;;;;;;;9.35;2.88;;;15.80;64.70;;;;;;5004794;28;20038;-74
2022/10/12 10:02:51;;;;;;;5.30;2.70;;;15.90;64.60;;;;;;4988729;28;20155;-74
2022/10/12 10:05:29;;;;;;;6.78;2.17;;;16.10;64.70;;;;;;4983103;28;20026;-74
2022/10/12 10:08:19;;;;;;;6.72;2.35;;;16.20;64.50;;;;;;4988784;28;20062;-76
2022/10/12 10:10:55;;;;;;;5.47;1.80;;;16.40;64.40;;;;;;4986059;28;20036;-75
2022/10/12 10:13:28;;;;;;;5.07;1.73;;;16.50;64.20;;;;;;4986477;28;20103;-75
2022/10/12 10:16:20;;;;;;;;;;;16.70;64.10;;;;;;5001627;28;20027;-75
2022/10/12 10:18:54;;;;;;;4.00;1.77;;;16.90;64.10;;;;;;4988313;28;19913;-75
2022/10/12 10:21:38;;;;;;;4.85;2.22;;;17.10;64.00;;;;;;4988179;28;20035;-76
2022/10/12 10:24:17;;;;;;;4.57;2.20;;;17.30;63.90;;;;;;4991856;28;20122;-75
2022/10/12 10:26:56;;;;;;;5.35;1.77;;;17.40;63.70;;;;;;4988125;28;20033;-78
2022/10/12 10:29:31;;;;;;;4.78;2.28;;;17.70;63.70;;;;;;4998167;28;20038;-74
2022/10/12 10:32:11;;;;;;;6.40;2.17;;;17.80;63.40;;;;;;4990519;28;20410;-74
2022/10/12 10:34:40;;;;;;;5.65;2.30;;;18.00;63.20;;;;;;4981747;28;20394;-74
2022/10/12 10:37:11;;;;;;;8.50;2.20;;;18.20;63.30;;;;;;4989087;28;20036;-74
2022/10/12 10:39:48;;;;;;;10.68;2.38;;;18.30;63.10;;;;;;4982761;28;20085;-78
2022/10/12 10:42:24;;;;;;;7.32;2.22;;;18.40;62.80;;;;;;4988924;28;20038;-76
2022/10/12 10:44:55;;;;;;;5.47;1.95;;;18.60;62.90;;;;;;4992934;28;20057;-77
2022/10/12 10:47:24;;;;;;;6.75;2.33;;;18.70;62.70;;;;;;4982524;28;20040;-75
2022/10/12 10:49:59;;;;;;;4.45;1.70;;;18.80;62.60;;;;;;4986948;28;20047;-77
2022/10/12 10:52:34;;;;;;;7.03;1.80;;;18.90;62.30;;;;;;4983869;28;20096;-75
2022/10/12 10:55:07;;;;;;;7.18;2.22;;;19.10;62.40;;;;;;4990315;28;20540;-75
2022/10/12 10:57:34;;;;;;;4.80;1.60;;;19.20;62.20;;;;;;4987761;28;20038;-75
2022/10/12 11:00:13;;;;;;;4.18;1.92;;;19.30;62.10;;;;;;4986650;28;20018;-75
2022/10/12 11:03:03;;;;;;;10.65;2.83;;;19.40;61.90;;;;;;4991964;28;20038;-75
2022/10/12 11:05:47;;;;;;;8.07;2.45;;;19.50;61.60;;;;;;4988467;28;20100;-76
2022/10/12 11:08:25;;;;;;;5.65;1.63;;;19.60;61.40;;;;;;4982363;28;20064;-74
2022/10/12 11:11:20;;;;;;;5.00;1.55;;;19.70;61.30;;;;;;4989400;28;20478;-76
2022/10/12 11:13:59;;;;;;;4.97;2.17;;;19.90;61.30;;;;;;4984308;28;20100;-75
2022/10/12 11:16:34;;;;;;;6.75;2.22;;;20.00;61.30;;;;;;4989175;28;20030;-74
2022/10/12 11:19:28;;;;;;;5.70;1.90;;;20.20;61.20;;;;;;4988980;28;20225;-76
2022/10/12 11:22:03;;;;;;;4.75;1.90;;;20.30;60.90;;;;;;4977857;28;20034;-75
2022/10/12 11:24:34;;;;;;;5.60;2.55;;;20.40;60.80;;;;;;4988330;28;20031;-75
2022/10/12 11:27:16;;;;;;;8.23;2.97;;;20.50;60.70;;;;;;4991002;28;20283;-75
2022/10/12 11:29:43;;;;;;;5.35;1.85;;;20.60;60.50;;;;;;4989237;28;20601;-76
2022/10/12 11:32:30;;;;;;;5.47;2.00;;;20.70;60.50;;;;;;4987699;28;20053;-75
2022/10/12 11:35:12;;;;;;;4.18;1.48;;;20.80;60.10;;;;;;4993615;28;20096;-73
2022/10/12 11:37:47;;;;;;;4.20;1.40;;;20.90;59.90;;;;;;4984914;28;20036;-76
2022/10/12 11:40:25;;;;;;;4.45;2.05;;;21.10;60.00;;;;;;4991749;28;20027;-75
2022/10/12 11:42:54;;;;;;;7.47;2.17;;;21.20;59.80;;;;;;4993114;28;20044;-75
2022/10/12 11:45:30;;;;;;;4.97;1.65;;;21.30;59.60;;;;;;4989206;28;20044;-76
2022/10/12 11:48:01;;;;;;;4.95;1.55;;;21.40;59.20;;;;;;4989198;28;20044;-75
2022/10/12 11:50:36;;;;;;;4.40;1.55;;;21.50;59.20;;;;;;5001703;28;20038;-75
2022/10/12 11:53:09;;;;;;;5.60;1.65;;;21.60;59.00;;;;;;4991134;28;20038;-75
2022/10/12 11:56:08;;;;;;;5.68;2.00;;;21.70;58.90;;;;;;4990796;28;20346;-75
2022/10/12 11:58:42;;;;;;;6.05;1.55;;;21.80;58.50;;;;;;4990110;28;20032;-75
2022/10/12 12:01:30;;;;;;;5.70;2.22;;;21.90;58.60;;;;;;4986842;28;20053;-74
2022/10/12 12:04:11;;;;;;;6.20;1.48;;;21.90;58.30;;;;;;4986724;28;20540;-76
2022/10/12 12:06:43;;;;;;;4.65;1.55;;;22.00;58.40;;;;;;4988651;28;20039;-76
2022/10/12 12:09:33;;;;;;;4.70;1.40;;;22.10;58.30;;;;;;4988510;28;20030;-75
2022/10/12 12:12:15;;;;;;;3.65;1.48;;;22.10;57.90;;;;;;4990318;28;20034;-75
2022/10/12 12:14:47;;;;;;;4.13;1.65;;;22.20;58.00;;;;;;4989640;28;20029;-74
2022/10/12 12:17:24;;;;;;;6.40;1.50;;;22.30;58.20;;;;;;4989573;28;20035;-74
2022/10/12 12:19:55;;;;;;;2.65;1.50;;;22.30;57.70;;;;;;4992320;28;20057;-75
2022/10/12 12:22:46;;;;;;;6.07;2.20;;;22.40;57.70;;;;;;4978979;28;20498;-73
2022/10/12 12:25:15;;;;;;;3.08;1.10;;;22.50;57.70;;;;;;4986181;28;20053;-74
2022/10/12 12:27:47;;;;;;;4.20;1.42;;;22.60;57.60;;;;;;4985695;28;20038;-74
2022/10/12 12:30:24;;;;;;;4.73;1.43;;;22.70;57.50;;;;;;4991315;28;20038;-74
2022/10/12 12:32:59;;;;;;;5.50;1.90;;;22.70;57.20;;;;;;4984418;28;20030;-76
2022/10/12 12:35:50;;;;;;;3.20;1.27;;;22.80;57.20;;;;;;4981586;28;20078;-75
2022/10/12 12:38:23;;;;;;;5.78;1.40;;;22.90;57.10;;;;;;4990202;28;20040;-74
2022/10/12 12:41:04;;;;;;;4.90;1.38;;;23.00;57.30;;;;;;4985214;28;20046;-75
2022/10/12 12:43:43;;;;;;;4.78;1.75;;;23.00;56.90;;;;;;4987120;28;20502;-74
2022/10/12 12:46:11;;;;;;;5.50;1.60;;;23.00;56.90;;;;;;4981144;28;20542;-76
2022/10/12 12:48:37;;;;;;;4.35;1.58;;;23.10;56.90;;;;;;4975293;28;20046;-78
2022/10/12 12:51:18;;;;;;;5.40;1.58;;;23.00;56.60;;;;;;4989618;28;20045;-75
2022/10/12 12:54:01;;;;;;;2.20;1.02;;;23.00;56.40;;;;;;4992748;28;20139;-75
2022/10/12 12:56:55;;;;;;;7.38;2.03;;;23.10;56.40;;;;;;4991051;28;20402;-75
2022/10/12 12:59:44;;;;;;;4.05;1.73;;;23.10;56.30;;;;;;4990969;28;20384;-75
2022/10/12 13:02:48;;;;;;;4.97;1.70;;;23.10;56.30;;;;;;4972096;28;20091;-75
2022/10/12 13:06:01;;;;;;;3.63;1.50;;;23.10;56.00;;;;;;4983952;28;20027;-75
2022/10/12 13:08:59;;;;;;;4.25;1.63;;;23.10;55.90;;;;;;4979637;28;20350;-75
2022/10/12 13:11:43;;;;;;;5.97;2.00;;;23.10;56.00;;;;;;4984420;28;20033;-75
2022/10/12 13:14:32;;;;;;;5.43;1.33;;;23.10;56.00;;;;;;4984233;28;20023;-74